Startpagina
METAR-TAF:

METAR-TAF

Vliegvelden :

Luchthaven Stockholm-Bromma

Stockholm, Zweden

breedte: 59-21N, lengte: 017-57E, hoogte: 14 m

Actueel weer

Dit bericht is 15 minuten geleden gemaakt, om 03:20 UTC
Wind 11 kt uit het westzuidwesten
Temperatuur 5°C
Vochtigheid 70%
Druk 996 hPa
Zicht 10 km of meer

METAR: ESSB 190320Z AUTO 24011KT 9999 OVC029/// 05/M00 Q0996

Tijdstip: 04:35 (03:35 UTC)

Verwachting

Dit bericht is 5 minuten geleden gemaakt, om 03:30 UTC
Verwachting geldig van 19 om 04 UTC tot 19 om 12 UTC
Wind 12 kt uit het westzuidwesten
Zicht 10 km of meer
Gebroken wolken op 3000 ft

TAF: ESSB 190330Z 1904/1912 24012KT 9999 BKN030

Waarnemingen en weersverwachtingen van meer dan 4000 vliegvelden (METAR en TAF).

De beschikbare stations zijn de gele en rode punten op de kaart.

Ga met uw muis naar het station om de naam te zien.

Klik dan om waarnemingen en weersverwachtingen te zien.

kaart wijzigen: klik op de groene knoppen met een zwart kruis om in te zoomen, op de groene knop met een streepje om uit te zoomen of op de groene pijlen voor aangrenzende kaarten.


METAR-TAF: